createdAt,value
2023-03-02T00:01:49.413Z,22.3
2023-03-02T00:07:42.217Z,22.3
2023-03-02T00:13:35.608Z,22.2
2023-03-02T00:19:28.282Z,22.2
2023-03-02T00:25:20.117Z,22.2
2023-03-02T00:31:13.080Z,22.2
2023-03-02T00:37:05.942Z,22.1
2023-03-02T00:42:58.189Z,22.1
2023-03-02T00:48:51.349Z,22.1
2023-03-02T00:54:29.076Z,22.1
2023-03-02T01:00:22.039Z,22.1
2023-03-02T01:06:16.278Z,22.1
2023-03-02T01:12:09.424Z,22.1
2023-03-02T01:18:02.983Z,22.1
2023-03-02T01:23:56.264Z,22.1
2023-03-02T01:29:18.582Z,22.1
2023-03-02T01:35:11.167Z,22.1
2023-03-02T01:41:05.753Z,22.1
2023-03-02T01:46:42.025Z,22
2023-03-02T01:52:19.649Z,22
2023-03-02T01:58:13.846Z,22
2023-03-02T02:04:06.885Z,22
2023-03-02T02:10:00.032Z,21.9
2023-03-02T02:15:53.541Z,21.9
2023-03-02T02:21:45.967Z,21.9
2023-03-02T02:27:24.375Z,21.9
2023-03-02T02:33:17.519Z,21.9
2023-03-02T02:39:11.003Z,21.9
2023-03-02T02:50:25.524Z,21.9
2023-03-02T02:56:18.090Z,21.9
2023-03-02T03:01:55.958Z,21.9
2023-03-02T03:12:55.289Z,21.9
2023-03-02T03:18:48.163Z,21.9
2023-03-02T03:24:40.905Z,21.8
2023-03-02T03:30:33.618Z,21.8
2023-03-02T03:36:27.546Z,21.8
2023-03-02T03:42:20.534Z,21.8
2023-03-02T03:48:15.133Z,21.8
2023-03-02T03:54:09.749Z,21.8
2023-03-02T04:00:02.542Z,21.8
2023-03-02T04:05:25.163Z,21.7
2023-03-02T04:11:02.928Z,21.7
2023-03-02T04:22:01.700Z,21.7
2023-03-02T04:27:39.287Z,21.6
2023-03-02T04:33:33.295Z,21.6
2023-03-02T04:39:24.942Z,21.6
2023-03-02T04:45:17.791Z,21.6
2023-03-02T04:51:14.477Z,21.6
2023-03-02T04:57:06.514Z,21.6
2023-03-02T05:03:01.449Z,21.6
2023-03-02T05:08:54.214Z,21.6
2023-03-02T05:14:45.916Z,21.6
2023-03-02T05:20:39.090Z,21.6
2023-03-02T05:26:32.459Z,21.6
2023-03-02T05:32:25.313Z,21.6
2023-03-02T05:38:18.863Z,21.5
2023-03-02T05:44:12.269Z,21.6
2023-03-02T05:50:05.339Z,21.6
2023-03-02T05:55:42.930Z,21.5
2023-03-02T06:01:20.722Z,21.5
2023-03-02T06:06:57.893Z,21.5
2023-03-02T06:12:34.841Z,21.4
2023-03-02T06:18:13.124Z,21.4
2023-03-02T06:23:49.962Z,21.4
2023-03-02T06:29:41.814Z,21.4
2023-03-02T06:35:20.151Z,21.4
2023-03-02T06:40:57.253Z,21.5
2023-03-02T06:46:36.156Z,21.5
2023-03-02T06:52:13.071Z,21.5
2023-03-02T06:57:50.905Z,21.5
2023-03-02T07:03:29.869Z,21.5
2023-03-02T07:09:08.417Z,21.4
2023-03-02T07:14:48.634Z,21.4
2023-03-02T07:20:26.095Z,21.4
2023-03-02T07:26:03.891Z,21.4
2023-03-02T07:31:40.737Z,21.4
2023-03-02T07:37:34.463Z,21.5
2023-03-02T07:43:27.287Z,21.4
2023-03-02T07:49:20.292Z,21.4
2023-03-02T07:54:57.625Z,21.4
2023-03-02T08:00:50.257Z,21.5
2023-03-02T08:06:43.053Z,21.5
2023-03-02T08:12:36.457Z,21.5
2023-03-02T08:18:29.336Z,21.5
2023-03-02T08:24:21.659Z,21.5
2023-03-02T08:29:58.593Z,21.5
2023-03-02T08:35:52.890Z,21.5
2023-03-02T08:41:46.114Z,21.5
2023-03-02T08:47:40.129Z,21.5
2023-03-02T08:53:33.257Z,21.5
2023-03-02T08:59:25.983Z,21.5
2023-03-02T09:05:20.073Z,21.4
2023-03-02T09:11:13.378Z,21.5
2023-03-02T09:17:05.662Z,21.4
2023-03-02T09:22:58.058Z,21.4
2023-03-02T09:28:50.921Z,21.4
2023-03-02T09:34:44.478Z,21.4
2023-03-02T09:40:37.452Z,21.4
2023-03-02T09:46:41.103Z,21.4
2023-03-02T09:52:39.624Z,21.4
2023-03-02T09:58:33.403Z,21.5
2023-03-02T10:10:18.991Z,21.4
2023-03-02T10:16:15.509Z,21.5
2023-03-02T10:22:13.168Z,21.4
2023-03-02T10:28:08.767Z,21.4
2023-03-02T10:33:46.337Z,21.4
2023-03-02T10:39:39.803Z,21.4
2023-03-02T10:45:32.477Z,21.4
2023-03-02T10:51:32.445Z,21.4
2023-03-02T10:57:35.316Z,21.4
2023-03-02T11:03:28.026Z,21.4
2023-03-02T11:09:22.807Z,21.4
2023-03-02T11:15:16.605Z,21.4
2023-03-02T11:20:53.997Z,21.4
2023-03-02T11:32:26.489Z,21.4
2023-03-02T11:38:30.250Z,21.3
2023-03-02T11:44:28.004Z,21.3
2023-03-02T11:50:29.132Z,21.3
2023-03-02T11:56:30.241Z,21.3
2023-03-02T12:07:49.493Z,21.3
2023-03-02T12:13:42.625Z,21.3
2023-03-02T12:19:36.684Z,21.3
2023-03-02T12:25:29.744Z,21.3
2023-03-02T12:31:22.376Z,21.3
2023-03-02T12:37:16.056Z,21.3
2023-03-02T12:43:09.900Z,21.3
2023-03-02T12:49:06.958Z,21.3
2023-03-02T12:55:00.649Z,21.3
2023-03-02T13:00:54.069Z,21.3
2023-03-02T13:06:46.944Z,21.3
2023-03-02T13:12:44.362Z,21.3
2023-03-02T13:18:36.935Z,21.3
2023-03-02T13:24:29.403Z,21.3
2023-03-02T13:30:23.568Z,21.3
2023-03-02T13:36:17.490Z,21.3
2023-03-02T13:42:09.755Z,21.3
2023-03-02T13:48:04.475Z,21.3
2023-03-02T13:54:12.942Z,21.3
2023-03-02T14:00:05.657Z,21.3
2023-03-02T14:05:59.141Z,21.3
2023-03-02T14:11:53.384Z,21.3
2023-03-02T14:17:30.726Z,21.3
2023-03-02T14:23:24.386Z,21.3
2023-03-02T14:29:22.910Z,21.3
2023-03-02T14:35:16.032Z,21.2
2023-03-02T14:41:08.958Z,21.2
2023-03-02T14:47:13.199Z,21.2
2023-03-02T14:53:05.480Z,21.1
2023-03-02T14:59:00.721Z,19.1
2023-03-02T15:05:12.102Z,19.4
2023-03-02T15:11:19.646Z,19.9
2023-03-02T15:16:56.742Z,20.2
2023-03-02T15:22:50.092Z,20.4
2023-03-02T15:28:45.849Z,20.4
2023-03-02T15:34:39.553Z,20.6
2023-03-02T15:40:32.653Z,20.6
2023-03-02T15:46:26.621Z,20.7
2023-03-02T15:52:20.331Z,20.8
2023-03-02T15:58:23.067Z,20.8
2023-03-02T16:04:02.382Z,20.8
2023-03-02T16:09:56.548Z,20.8
2023-03-02T16:15:49.637Z,20.8
2023-03-02T16:21:42.223Z,20.8
2023-03-02T16:27:36.164Z,20.8
2023-03-02T16:33:29.858Z,20.8
2023-03-02T16:39:22.838Z,20.9
2023-03-02T16:45:16.275Z,20.9
2023-03-02T16:50:54.874Z,20.9
2023-03-02T16:56:48.220Z,20.8
2023-03-02T17:02:42.180Z,20.8
2023-03-02T17:08:40.006Z,20.8
2023-03-02T17:14:33.250Z,20.8
2023-03-02T17:20:26.867Z,20.8
2023-03-02T17:26:19.631Z,20.8
2023-03-02T17:32:27.520Z,20.8
2023-03-02T17:38:20.012Z,20.8
2023-03-02T17:44:16.881Z,20.8
2023-03-02T17:50:09.628Z,20.8
2023-03-02T17:56:02.786Z,20.9
2023-03-02T18:02:03.500Z,20.9
2023-03-02T18:07:59.770Z,20.9
2023-03-02T18:13:53.244Z,20.9
2023-03-02T18:19:46.536Z,20.9
2023-03-02T18:25:23.846Z,20.8
2023-03-02T18:31:18.391Z,20.8
2023-03-02T18:37:11.518Z,20.8
2023-03-02T18:42:48.483Z,20.8
2023-03-02T18:48:41.828Z,20.8
2023-03-02T18:54:35.388Z,20.8
2023-03-02T19:00:28.098Z,20.8
2023-03-02T19:06:20.923Z,20.8
2023-03-02T19:12:16.824Z,20.8
2023-03-02T19:17:55.965Z,20.8
2023-03-02T19:23:49.046Z,20.8
2023-03-02T19:29:42.364Z,20.8
2023-03-02T19:41:12.967Z,20.8
2023-03-02T19:47:06.913Z,20.8
2023-03-02T19:53:00.966Z,20.8
2023-03-02T19:58:53.883Z,20.8
2023-03-02T20:04:50.083Z,20.8
2023-03-02T20:10:27.761Z,20.8
2023-03-02T20:16:29.937Z,20.7
2023-03-02T20:22:25.063Z,20.7
2023-03-02T20:28:17.712Z,20.7
2023-03-02T20:34:10.861Z,20.7
2023-03-02T20:40:08.270Z,20.7
2023-03-02T20:46:01.486Z,20.7
2023-03-02T20:51:55.203Z,20.7
2023-03-02T20:57:48.723Z,20.8
2023-03-02T21:03:26.053Z,20.7
2023-03-02T21:09:21.603Z,20.7
2023-03-02T21:15:17.798Z,20.6
2023-03-02T21:27:04.435Z,20.7
2023-03-02T21:32:57.558Z,20.7
2023-03-02T21:38:52.434Z,20.7
2023-03-02T21:44:46.480Z,20.7
2023-03-02T21:56:19.564Z,20.7
2023-03-02T22:02:13.622Z,20.6
2023-03-02T22:08:06.025Z,20.6
2023-03-02T22:13:59.189Z,20.6
2023-03-02T22:19:53.549Z,20.7
2023-03-02T22:25:47.195Z,20.7
2023-03-02T22:31:38.918Z,20.7
2023-03-02T22:37:32.478Z,20.7
2023-03-02T22:43:26.174Z,20.8
2023-03-02T22:49:19.782Z,20.8
2023-03-02T22:55:13.411Z,20.8
2023-03-02T23:01:07.585Z,20.8
2023-03-02T23:07:00.769Z,20.8
2023-03-02T23:12:53.465Z,20.8
2023-03-02T23:18:48.707Z,20.8
2023-03-02T23:24:40.736Z,20.8
2023-03-02T23:30:33.281Z,20.8
2023-03-02T23:36:27.046Z,20.8
2023-03-02T23:42:18.793Z,20.8
2023-03-02T23:48:11.419Z,20.8
2023-03-02T23:54:04.872Z,20.8
2023-03-02T23:59:59.894Z,20.8
